sensor_id;sensor_type;location;lat;lon;timestamp;P1;durP1;ratioP1;P2;durP2;ratioP2
7324;SDS011;3703;48.016;7.802;2022-11-28T00:02:01;11.23;;;8.80;;
7324;SDS011;3703;48.016;7.802;2022-11-28T00:04:50;10.60;;;8.43;;
7324;SDS011;3703;48.016;7.802;2022-11-28T00:07:38;11.47;;;8.63;;
7324;SDS011;3703;48.016;7.802;2022-11-28T00:10:26;10.77;;;8.27;;
7324;SDS011;3703;48.016;7.802;2022-11-28T00:13:15;11.53;;;8.43;;
7324;SDS011;3703;48.016;7.802;2022-11-28T00:16:05;9.17;;;7.40;;
7324;SDS011;3703;48.016;7.802;2022-11-28T00:18:55;11.30;;;8.57;;
7324;SDS011;3703;48.016;7.802;2022-11-28T00:21:45;13.30;;;8.00;;
7324;SDS011;3703;48.016;7.802;2022-11-28T00:24:33;11.17;;;8.43;;
7324;SDS011;3703;48.016;7.802;2022-11-28T00:27:21;10.30;;;7.77;;
7324;SDS011;3703;48.016;7.802;2022-11-28T00:30:11;12.90;;;9.00;;
7324;SDS011;3703;48.016;7.802;2022-11-28T00:32:59;13.83;;;10.83;;
7324;SDS011;3703;48.016;7.802;2022-11-28T00:35:47;14.60;;;10.30;;
7324;SDS011;3703;48.016;7.802;2022-11-28T00:38:35;16.20;;;11.30;;
7324;SDS011;3703;48.016;7.802;2022-11-28T00:41:24;15.17;;;9.23;;
7324;SDS011;3703;48.016;7.802;2022-11-28T00:44:15;13.47;;;9.40;;
7324;SDS011;3703;48.016;7.802;2022-11-28T00:47:05;14.23;;;9.83;;
7324;SDS011;3703;48.016;7.802;2022-11-28T00:49:53;13.27;;;9.33;;
7324;SDS011;3703;48.016;7.802;2022-11-28T00:52:41;15.17;;;10.03;;
7324;SDS011;3703;48.016;7.802;2022-11-28T00:55:30;13.73;;;9.13;;
7324;SDS011;3703;48.016;7.802;2022-11-28T00:58:18;14.93;;;10.10;;
7324;SDS011;3703;48.016;7.802;2022-11-28T01:01:06;12.20;;;10.23;;
7324;SDS011;3703;48.016;7.802;2022-11-28T01:03:57;12.33;;;9.77;;
7324;SDS011;3703;48.016;7.802;2022-11-28T01:06:48;14.53;;;10.03;;
7324;SDS011;3703;48.016;7.802;2022-11-28T01:09:37;14.07;;;10.60;;
7324;SDS011;3703;48.016;7.802;2022-11-28T01:12:25;16.90;;;10.87;;
7324;SDS011;3703;48.016;7.802;2022-11-28T01:15:13;17.17;;;10.43;;
7324;SDS011;3703;48.016;7.802;2022-11-28T01:18:01;14.27;;;9.80;;
7324;SDS011;3703;48.016;7.802;2022-11-28T01:20:51;16.67;;;10.73;;
7324;SDS011;3703;48.016;7.802;2022-11-28T01:23:39;16.97;;;10.10;;
7324;SDS011;3703;48.016;7.802;2022-11-28T01:26:28;15.37;;;10.20;;
7324;SDS011;3703;48.016;7.802;2022-11-28T01:29:16;18.33;;;11.60;;
7324;SDS011;3703;48.016;7.802;2022-11-28T01:32:04;15.50;;;11.03;;
7324;SDS011;3703;48.016;7.802;2022-11-28T01:34:52;15.50;;;10.33;;
7324;SDS011;3703;48.016;7.802;2022-11-28T01:37:42;15.53;;;10.60;;
7324;SDS011;3703;48.016;7.802;2022-11-28T01:40:30;14.73;;;10.50;;
7324;SDS011;3703;48.016;7.802;2022-11-28T01:43:18;17.67;;;10.70;;
7324;SDS011;3703;48.016;7.802;2022-11-28T01:46:08;16.03;;;10.70;;
7324;SDS011;3703;48.016;7.802;2022-11-28T01:48:56;14.40;;;10.47;;
7324;SDS011;3703;48.016;7.802;2022-11-28T01:51:51;14.97;;;9.17;;
7324;SDS011;3703;48.016;7.802;2022-11-28T01:54:46;11.57;;;9.17;;
7324;SDS011;3703;48.016;7.802;2022-11-28T01:57:39;13.07;;;8.93;;
7324;SDS011;3703;48.016;7.802;2022-11-28T02:00:28;14.37;;;9.27;;
7324;SDS011;3703;48.016;7.802;2022-11-28T02:03:17;13.37;;;9.53;;
7324;SDS011;3703;48.016;7.802;2022-11-28T02:06:08;15.03;;;9.83;;
7324;SDS011;3703;48.016;7.802;2022-11-28T02:08:57;13.73;;;9.77;;
7324;SDS011;3703;48.016;7.802;2022-11-28T02:11:55;13.47;;;8.53;;
7324;SDS011;3703;48.016;7.802;2022-11-28T02:18:24;13.03;;;8.47;;
7324;SDS011;3703;48.016;7.802;2022-11-28T02:21:31;13.20;;;8.47;;
7324;SDS011;3703;48.016;7.802;2022-11-28T02:24:38;11.30;;;7.97;;
7324;SDS011;3703;48.016;7.802;2022-11-28T02:31:37;10.20;;;7.73;;
7324;SDS011;3703;48.016;7.802;2022-11-28T02:34:53;10.50;;;7.30;;
7324;SDS011;3703;48.016;7.802;2022-11-28T02:37:47;10.00;;;6.90;;
7324;SDS011;3703;48.016;7.802;2022-11-28T02:40:48;9.00;;;6.00;;
7324;SDS011;3703;48.016;7.802;2022-11-28T02:43:49;8.73;;;5.57;;
7324;SDS011;3703;48.016;7.802;2022-11-28T02:46:43;8.43;;;6.13;;
7324;SDS011;3703;48.016;7.802;2022-11-28T02:49:41;10.17;;;8.40;;
7324;SDS011;3703;48.016;7.802;2022-11-28T02:52:38;6.57;;;4.87;;
7324;SDS011;3703;48.016;7.802;2022-11-28T02:55:30;10.33;;;5.73;;
7324;SDS011;3703;48.016;7.802;2022-11-28T02:58:18;8.27;;;5.57;;
7324;SDS011;3703;48.016;7.802;2022-11-28T03:01:06;11.93;;;5.47;;
7324;SDS011;3703;48.016;7.802;2022-11-28T03:04:11;8.30;;;5.17;;
7324;SDS011;3703;48.016;7.802;2022-11-28T03:07:12;6.93;;;5.17;;
7324;SDS011;3703;48.016;7.802;2022-11-28T03:10:17;7.70;;;5.57;;
7324;SDS011;3703;48.016;7.802;2022-11-28T03:13:14;8.93;;;5.40;;
7324;SDS011;3703;48.016;7.802;2022-11-28T03:16:14;6.40;;;4.90;;
7324;SDS011;3703;48.016;7.802;2022-11-28T03:19:12;8.43;;;5.33;;
7324;SDS011;3703;48.016;7.802;2022-11-28T03:22:11;8.07;;;5.57;;
7324;SDS011;3703;48.016;7.802;2022-11-28T03:25:09;7.90;;;5.23;;
7324;SDS011;3703;48.016;7.802;2022-11-28T03:28:04;6.10;;;5.23;;
7324;SDS011;3703;48.016;7.802;2022-11-28T03:30:58;8.00;;;4.93;;
7324;SDS011;3703;48.016;7.802;2022-11-28T03:33:50;6.17;;;4.53;;
7324;SDS011;3703;48.016;7.802;2022-11-28T03:36:44;5.10;;;4.10;;
7324;SDS011;3703;48.016;7.802;2022-11-28T03:39:40;5.50;;;3.93;;
7324;SDS011;3703;48.016;7.802;2022-11-28T03:42:34;7.87;;;4.30;;
7324;SDS011;3703;48.016;7.802;2022-11-28T03:45:27;5.73;;;4.27;;
7324;SDS011;3703;48.016;7.802;2022-11-28T03:48:22;5.80;;;4.37;;
7324;SDS011;3703;48.016;7.802;2022-11-28T03:51:14;5.27;;;4.13;;
7324;SDS011;3703;48.016;7.802;2022-11-28T03:54:05;6.17;;;4.27;;
7324;SDS011;3703;48.016;7.802;2022-11-28T03:57:01;6.50;;;4.57;;
7324;SDS011;3703;48.016;7.802;2022-11-28T03:59:56;5.70;;;4.53;;
7324;SDS011;3703;48.016;7.802;2022-11-28T04:02:50;6.77;;;4.40;;
7324;SDS011;3703;48.016;7.802;2022-11-28T04:05:44;4.77;;;4.13;;
7324;SDS011;3703;48.016;7.802;2022-11-28T04:08:35;6.77;;;4.47;;
7324;SDS011;3703;48.016;7.802;2022-11-28T04:11:31;5.03;;;4.50;;
7324;SDS011;3703;48.016;7.802;2022-11-28T04:14:27;6.17;;;3.97;;
7324;SDS011;3703;48.016;7.802;2022-11-28T04:17:23;5.63;;;3.57;;
7324;SDS011;3703;48.016;7.802;2022-11-28T04:20:21;4.77;;;3.67;;
7324;SDS011;3703;48.016;7.802;2022-11-28T04:23:16;7.17;;;4.33;;
7324;SDS011;3703;48.016;7.802;2022-11-28T04:26:07;6.20;;;4.57;;
7324;SDS011;3703;48.016;7.802;2022-11-28T04:29:03;5.60;;;3.97;;
7324;SDS011;3703;48.016;7.802;2022-11-28T04:31:56;4.47;;;3.70;;
7324;SDS011;3703;48.016;7.802;2022-11-28T04:34:48;5.30;;;3.80;;
7324;SDS011;3703;48.016;7.802;2022-11-28T04:37:41;5.17;;;4.17;;
7324;SDS011;3703;48.016;7.802;2022-11-28T04:40:33;6.23;;;3.87;;
7324;SDS011;3703;48.016;7.802;2022-11-28T04:43:29;4.73;;;3.53;;
7324;SDS011;3703;48.016;7.802;2022-11-28T04:46:22;4.73;;;3.73;;
7324;SDS011;3703;48.016;7.802;2022-11-28T04:49:16;8.03;;;3.87;;
7324;SDS011;3703;48.016;7.802;2022-11-28T04:52:05;3.77;;;3.47;;
7324;SDS011;3703;48.016;7.802;2022-11-28T04:54:58;4.37;;;3.17;;
7324;SDS011;3703;48.016;7.802;2022-11-28T04:57:50;6.73;;;3.30;;
7324;SDS011;3703;48.016;7.802;2022-11-28T05:00:43;3.67;;;3.00;;
7324;SDS011;3703;48.016;7.802;2022-11-28T05:03:33;3.90;;;3.10;;
7324;SDS011;3703;48.016;7.802;2022-11-28T05:06:24;3.60;;;2.80;;
7324;SDS011;3703;48.016;7.802;2022-11-28T05:09:15;3.47;;;2.70;;
7324;SDS011;3703;48.016;7.802;2022-11-28T05:12:03;6.33;;;2.93;;
7324;SDS011;3703;48.016;7.802;2022-11-28T05:14:52;4.97;;;3.50;;
7324;SDS011;3703;48.016;7.802;2022-11-28T05:17:40;4.33;;;3.33;;
7324;SDS011;3703;48.016;7.802;2022-11-28T05:20:28;3.83;;;2.57;;
7324;SDS011;3703;48.016;7.802;2022-11-28T05:23:18;3.33;;;2.40;;
7324;SDS011;3703;48.016;7.802;2022-11-28T05:26:06;3.33;;;2.80;;
7324;SDS011;3703;48.016;7.802;2022-11-28T05:28:56;3.43;;;2.60;;
7324;SDS011;3703;48.016;7.802;2022-11-28T05:31:44;4.73;;;3.37;;
7324;SDS011;3703;48.016;7.802;2022-11-28T05:34:33;5.27;;;3.67;;
7324;SDS011;3703;48.016;7.802;2022-11-28T05:37:22;6.17;;;3.40;;
7324;SDS011;3703;48.016;7.802;2022-11-28T05:40:12;5.57;;;3.50;;
7324;SDS011;3703;48.016;7.802;2022-11-28T05:43:00;4.47;;;3.20;;
7324;SDS011;3703;48.016;7.802;2022-11-28T05:45:48;4.37;;;3.40;;
7324;SDS011;3703;48.016;7.802;2022-11-28T05:48:37;3.60;;;3.30;;
7324;SDS011;3703;48.016;7.802;2022-11-28T05:51:25;2.93;;;2.57;;
7324;SDS011;3703;48.016;7.802;2022-11-28T05:54:13;4.43;;;2.80;;
7324;SDS011;3703;48.016;7.802;2022-11-28T05:57:02;4.53;;;3.00;;
7324;SDS011;3703;48.016;7.802;2022-11-28T05:59:52;3.63;;;2.90;;
7324;SDS011;3703;48.016;7.802;2022-11-28T06:02:40;4.27;;;3.73;;
7324;SDS011;3703;48.016;7.802;2022-11-28T06:05:29;3.93;;;3.00;;
7324;SDS011;3703;48.016;7.802;2022-11-28T06:08:17;3.83;;;3.43;;
7324;SDS011;3703;48.016;7.802;2022-11-28T06:11:05;4.93;;;3.10;;
7324;SDS011;3703;48.016;7.802;2022-11-28T06:13:55;3.30;;;3.00;;
7324;SDS011;3703;48.016;7.802;2022-11-28T06:16:43;2.97;;;2.63;;
7324;SDS011;3703;48.016;7.802;2022-11-28T06:19:31;3.73;;;3.00;;
7324;SDS011;3703;48.016;7.802;2022-11-28T06:22:19;3.70;;;2.80;;
7324;SDS011;3703;48.016;7.802;2022-11-28T06:25:07;4.53;;;3.93;;
7324;SDS011;3703;48.016;7.802;2022-11-28T06:27:55;3.17;;;2.40;;
7324;SDS011;3703;48.016;7.802;2022-11-28T06:30:45;4.07;;;2.80;;
7324;SDS011;3703;48.016;7.802;2022-11-28T06:33:33;3.93;;;3.30;;
7324;SDS011;3703;48.016;7.802;2022-11-28T06:36:21;5.57;;;3.00;;
7324;SDS011;3703;48.016;7.802;2022-11-28T06:39:11;3.63;;;3.07;;
7324;SDS011;3703;48.016;7.802;2022-11-28T06:42:01;4.80;;;3.70;;
7324;SDS011;3703;48.016;7.802;2022-11-28T06:44:49;4.20;;;3.57;;
7324;SDS011;3703;48.016;7.802;2022-11-28T06:47:39;5.30;;;3.57;;
7324;SDS011;3703;48.016;7.802;2022-11-28T06:50:28;4.47;;;3.47;;
7324;SDS011;3703;48.016;7.802;2022-11-28T06:53:16;10.97;;;8.23;;
7324;SDS011;3703;48.016;7.802;2022-11-28T06:56:04;10.23;;;5.83;;
7324;SDS011;3703;48.016;7.802;2022-11-28T06:58:55;12.87;;;7.13;;
7324;SDS011;3703;48.016;7.802;2022-11-28T07:01:45;8.83;;;6.20;;
7324;SDS011;3703;48.016;7.802;2022-11-28T07:04:36;6.63;;;4.90;;
7324;SDS011;3703;48.016;7.802;2022-11-28T07:07:24;5.87;;;4.27;;
7324;SDS011;3703;48.016;7.802;2022-11-28T07:10:12;10.30;;;4.80;;
7324;SDS011;3703;48.016;7.802;2022-11-28T07:13:00;5.90;;;4.10;;
7324;SDS011;3703;48.016;7.802;2022-11-28T07:15:48;5.57;;;4.37;;
7324;SDS011;3703;48.016;7.802;2022-11-28T07:18:37;8.30;;;4.83;;
7324;SDS011;3703;48.016;7.802;2022-11-28T07:21:27;7.37;;;5.23;;
7324;SDS011;3703;48.016;7.802;2022-11-28T07:24:15;8.07;;;5.57;;
7324;SDS011;3703;48.016;7.802;2022-11-28T07:27:05;10.40;;;7.03;;
7324;SDS011;3703;48.016;7.802;2022-11-28T07:29:53;12.90;;;7.87;;
7324;SDS011;3703;48.016;7.802;2022-11-28T07:32:41;12.23;;;7.10;;
7324;SDS011;3703;48.016;7.802;2022-11-28T07:35:31;11.50;;;7.17;;
7324;SDS011;3703;48.016;7.802;2022-11-28T07:38:21;10.00;;;7.07;;
7324;SDS011;3703;48.016;7.802;2022-11-28T07:41:10;9.10;;;7.37;;
7324;SDS011;3703;48.016;7.802;2022-11-28T07:44:00;10.23;;;8.33;;
7324;SDS011;3703;48.016;7.802;2022-11-28T07:46:49;13.17;;;10.37;;
7324;SDS011;3703;48.016;7.802;2022-11-28T07:49:37;15.47;;;11.00;;
7324;SDS011;3703;48.016;7.802;2022-11-28T07:52:26;15.97;;;11.83;;
7324;SDS011;3703;48.016;7.802;2022-11-28T07:55:15;17.67;;;12.63;;
7324;SDS011;3703;48.016;7.802;2022-11-28T07:58:04;14.57;;;10.93;;
7324;SDS011;3703;48.016;7.802;2022-11-28T08:00:52;17.93;;;11.60;;
7324;SDS011;3703;48.016;7.802;2022-11-28T08:03:40;13.80;;;10.17;;
7324;SDS011;3703;48.016;7.802;2022-11-28T08:06:29;15.83;;;10.57;;
7324;SDS011;3703;48.016;7.802;2022-11-28T08:09:21;14.43;;;9.17;;
7324;SDS011;3703;48.016;7.802;2022-11-28T08:12:10;12.90;;;8.43;;
7324;SDS011;3703;48.016;7.802;2022-11-28T08:14:59;11.63;;;8.30;;
7324;SDS011;3703;48.016;7.802;2022-11-28T08:17:47;11.43;;;8.50;;
7324;SDS011;3703;48.016;7.802;2022-11-28T08:20:35;11.93;;;8.17;;
7324;SDS011;3703;48.016;7.802;2022-11-28T08:23:23;14.83;;;7.80;;
7324;SDS011;3703;48.016;7.802;2022-11-28T08:26:12;8.30;;;6.27;;
7324;SDS011;3703;48.016;7.802;2022-11-28T08:29:03;10.23;;;6.17;;
7324;SDS011;3703;48.016;7.802;2022-11-28T08:31:51;10.30;;;5.10;;
7324;SDS011;3703;48.016;7.802;2022-11-28T08:34:39;7.07;;;4.57;;
7324;SDS011;3703;48.016;7.802;2022-11-28T08:37:27;8.20;;;3.50;;
7324;SDS011;3703;48.016;7.802;2022-11-28T08:40:15;4.17;;;3.10;;
7324;SDS011;3703;48.016;7.802;2022-11-28T08:43:04;5.77;;;3.33;;
7324;SDS011;3703;48.016;7.802;2022-11-28T08:45:54;3.57;;;2.30;;
7324;SDS011;3703;48.016;7.802;2022-11-28T08:48:42;7.47;;;5.23;;
7324;SDS011;3703;48.016;7.802;2022-11-28T08:51:31;2.67;;;1.90;;
7324;SDS011;3703;48.016;7.802;2022-11-28T08:54:19;4.47;;;2.70;;
7324;SDS011;3703;48.016;7.802;2022-11-28T08:57:07;4.77;;;2.13;;
7324;SDS011;3703;48.016;7.802;2022-11-28T08:59:55;3.67;;;2.50;;
7324;SDS011;3703;48.016;7.802;2022-11-28T09:02:45;9.67;;;6.60;;
7324;SDS011;3703;48.016;7.802;2022-11-28T09:05:33;3.33;;;2.53;;
7324;SDS011;3703;48.016;7.802;2022-11-28T09:08:21;2.97;;;2.10;;
7324;SDS011;3703;48.016;7.802;2022-11-28T09:11:10;2.47;;;2.27;;
7324;SDS011;3703;48.016;7.802;2022-11-28T09:13:59;2.93;;;2.30;;
7324;SDS011;3703;48.016;7.802;2022-11-28T09:16:47;6.07;;;2.50;;
7324;SDS011;3703;48.016;7.802;2022-11-28T09:19:37;6.40;;;2.47;;
7324;SDS011;3703;48.016;7.802;2022-11-28T09:22:27;2.93;;;2.00;;
7324;SDS011;3703;48.016;7.802;2022-11-28T09:25:15;2.57;;;2.37;;
7324;SDS011;3703;48.016;7.802;2022-11-28T09:28:04;2.50;;;2.30;;
7324;SDS011;3703;48.016;7.802;2022-11-28T09:30:58;1.77;;;1.60;;
7324;SDS011;3703;48.016;7.802;2022-11-28T09:33:47;2.23;;;2.00;;
7324;SDS011;3703;48.016;7.802;2022-11-28T09:36:36;5.03;;;2.10;;
7324;SDS011;3703;48.016;7.802;2022-11-28T09:39:24;2.20;;;2.00;;
7324;SDS011;3703;48.016;7.802;2022-11-28T09:42:13;2.67;;;2.00;;
7324;SDS011;3703;48.016;7.802;2022-11-28T09:45:09;2.60;;;1.90;;
7324;SDS011;3703;48.016;7.802;2022-11-28T09:48:02;2.37;;;2.00;;
7324;SDS011;3703;48.016;7.802;2022-11-28T09:51:08;3.33;;;2.10;;
7324;SDS011;3703;48.016;7.802;2022-11-28T09:54:09;3.27;;;1.67;;
7324;SDS011;3703;48.016;7.802;2022-11-28T09:57:03;3.00;;;1.80;;
7324;SDS011;3703;48.016;7.802;2022-11-28T10:00:01;2.37;;;1.70;;
7324;SDS011;3703;48.016;7.802;2022-11-28T10:03:00;2.37;;;1.67;;
7324;SDS011;3703;48.016;7.802;2022-11-28T10:06:07;4.97;;;2.03;;
7324;SDS011;3703;48.016;7.802;2022-11-28T10:12:21;4.40;;;2.23;;
7324;SDS011;3703;48.016;7.802;2022-11-28T10:15:27;3.53;;;1.93;;
7324;SDS011;3703;48.016;7.802;2022-11-28T10:18:27;2.57;;;1.80;;
7324;SDS011;3703;48.016;7.802;2022-11-28T10:21:25;2.27;;;2.07;;
7324;SDS011;3703;48.016;7.802;2022-11-28T10:24:19;3.10;;;1.93;;
7324;SDS011;3703;48.016;7.802;2022-11-28T10:27:17;2.07;;;1.87;;
7324;SDS011;3703;48.016;7.802;2022-11-28T10:30:06;2.93;;;1.97;;
7324;SDS011;3703;48.016;7.802;2022-11-28T10:33:07;4.53;;;2.20;;
7324;SDS011;3703;48.016;7.802;2022-11-28T10:36:00;2.40;;;2.07;;
7324;SDS011;3703;48.016;7.802;2022-11-28T10:38:49;4.13;;;2.40;;
7324;SDS011;3703;48.016;7.802;2022-11-28T10:41:39;2.87;;;2.33;;
7324;SDS011;3703;48.016;7.802;2022-11-28T10:44:59;5.33;;;2.63;;
7324;SDS011;3703;48.016;7.802;2022-11-28T10:51:18;3.20;;;2.60;;
7324;SDS011;3703;48.016;7.802;2022-11-28T10:54:23;3.40;;;2.43;;
7324;SDS011;3703;48.016;7.802;2022-11-28T10:57:35;4.30;;;2.40;;
7324;SDS011;3703;48.016;7.802;2022-11-28T11:00:29;3.40;;;2.70;;
7324;SDS011;3703;48.016;7.802;2022-11-28T11:03:18;3.50;;;3.20;;
7324;SDS011;3703;48.016;7.802;2022-11-28T11:06:13;6.17;;;3.67;;
7324;SDS011;3703;48.016;7.802;2022-11-28T11:09:01;6.07;;;3.53;;
7324;SDS011;3703;48.016;7.802;2022-11-28T11:11:50;5.20;;;3.70;;
7324;SDS011;3703;48.016;7.802;2022-11-28T11:14:46;4.10;;;3.00;;
7324;SDS011;3703;48.016;7.802;2022-11-28T11:17:34;5.47;;;3.60;;
7324;SDS011;3703;48.016;7.802;2022-11-28T11:20:31;4.33;;;2.87;;
7324;SDS011;3703;48.016;7.802;2022-11-28T11:23:22;4.23;;;3.43;;
7324;SDS011;3703;48.016;7.802;2022-11-28T11:26:18;5.27;;;4.20;;
7324;SDS011;3703;48.016;7.802;2022-11-28T11:29:18;3.40;;;2.70;;
7324;SDS011;3703;48.016;7.802;2022-11-28T11:32:17;4.60;;;3.10;;
7324;SDS011;3703;48.016;7.802;2022-11-28T11:35:14;3.43;;;2.80;;
7324;SDS011;3703;48.016;7.802;2022-11-28T11:38:14;4.27;;;3.20;;
7324;SDS011;3703;48.016;7.802;2022-11-28T11:41:26;5.03;;;3.53;;
7324;SDS011;3703;48.016;7.802;2022-11-28T11:44:26;5.40;;;3.40;;
7324;SDS011;3703;48.016;7.802;2022-11-28T11:47:20;6.47;;;4.23;;
7324;SDS011;3703;48.016;7.802;2022-11-28T11:50:28;5.60;;;3.40;;
7324;SDS011;3703;48.016;7.802;2022-11-28T11:53:18;3.57;;;3.00;;
7324;SDS011;3703;48.016;7.802;2022-11-28T11:56:07;3.17;;;2.87;;
7324;SDS011;3703;48.016;7.802;2022-11-28T11:58:56;3.23;;;2.50;;
7324;SDS011;3703;48.016;7.802;2022-11-28T12:01:48;2.97;;;2.47;;
7324;SDS011;3703;48.016;7.802;2022-11-28T12:04:44;3.23;;;2.50;;
7324;SDS011;3703;48.016;7.802;2022-11-28T12:07:40;5.17;;;3.00;;
7324;SDS011;3703;48.016;7.802;2022-11-28T12:10:40;2.67;;;2.40;;
7324;SDS011;3703;48.016;7.802;2022-11-28T12:13:32;3.20;;;2.60;;
7324;SDS011;3703;48.016;7.802;2022-11-28T12:16:31;3.27;;;2.60;;
7324;SDS011;3703;48.016;7.802;2022-11-28T12:19:30;3.33;;;2.40;;
7324;SDS011;3703;48.016;7.802;2022-11-28T12:22:33;2.97;;;2.60;;
7324;SDS011;3703;48.016;7.802;2022-11-28T12:25:30;4.03;;;2.17;;
7324;SDS011;3703;48.016;7.802;2022-11-28T12:28:28;5.83;;;3.60;;
7324;SDS011;3703;48.016;7.802;2022-11-28T12:31:30;8.43;;;5.30;;
7324;SDS011;3703;48.016;7.802;2022-11-28T12:34:28;12.20;;;6.77;;
7324;SDS011;3703;48.016;7.802;2022-11-28T12:37:28;4.80;;;4.03;;
7324;SDS011;3703;48.016;7.802;2022-11-28T12:40:32;3.47;;;2.67;;
7324;SDS011;3703;48.016;7.802;2022-11-28T12:43:29;4.70;;;2.27;;
7324;SDS011;3703;48.016;7.802;2022-11-28T12:46:29;4.20;;;2.77;;
7324;SDS011;3703;48.016;7.802;2022-11-28T12:49:32;4.50;;;2.87;;
7324;SDS011;3703;48.016;7.802;2022-11-28T12:52:29;3.43;;;2.70;;
7324;SDS011;3703;48.016;7.802;2022-11-28T12:55:30;4.43;;;2.87;;
7324;SDS011;3703;48.016;7.802;2022-11-28T12:58:28;2.73;;;2.40;;
7324;SDS011;3703;48.016;7.802;2022-11-28T13:01:28;2.90;;;2.00;;
7324;SDS011;3703;48.016;7.802;2022-11-28T13:04:32;4.57;;;3.20;;
7324;SDS011;3703;48.016;7.802;2022-11-28T13:07:41;7.53;;;6.07;;
7324;SDS011;3703;48.016;7.802;2022-11-28T13:10:41;4.63;;;3.67;;
7324;SDS011;3703;48.016;7.802;2022-11-28T13:13:37;5.33;;;2.60;;
7324;SDS011;3703;48.016;7.802;2022-11-28T13:16:30;4.77;;;3.17;;
7324;SDS011;3703;48.016;7.802;2022-11-28T13:19:30;12.17;;;5.00;;
7324;SDS011;3703;48.016;7.802;2022-11-28T13:22:30;12.03;;;6.53;;
7324;SDS011;3703;48.016;7.802;2022-11-28T13:25:28;14.10;;;7.00;;
7324;SDS011;3703;48.016;7.802;2022-11-28T13:28:26;12.47;;;5.90;;
7324;SDS011;3703;48.016;7.802;2022-11-28T13:31:23;3.83;;;2.93;;
7324;SDS011;3703;48.016;7.802;2022-11-28T13:34:15;5.63;;;2.77;;
7324;SDS011;3703;48.016;7.802;2022-11-28T13:37:07;4.03;;;3.20;;
7324;SDS011;3703;48.016;7.802;2022-11-28T13:40:00;7.27;;;5.00;;
7324;SDS011;3703;48.016;7.802;2022-11-28T13:43:01;8.00;;;5.20;;
7324;SDS011;3703;48.016;7.802;2022-11-28T13:45:53;11.43;;;6.13;;
7324;SDS011;3703;48.016;7.802;2022-11-28T13:48:57;10.77;;;6.93;;
7324;SDS011;3703;48.016;7.802;2022-11-28T13:51:47;8.97;;;6.70;;
7324;SDS011;3703;48.016;7.802;2022-11-28T13:55:36;6.33;;;4.97;;
7324;SDS011;3703;48.016;7.802;2022-11-28T13:58:31;4.73;;;4.17;;
7324;SDS011;3703;48.016;7.802;2022-11-28T14:01:29;8.73;;;5.30;;
7324;SDS011;3703;48.016;7.802;2022-11-28T14:04:28;6.80;;;4.57;;
7324;SDS011;3703;48.016;7.802;2022-11-28T14:07:22;4.80;;;3.60;;
7324;SDS011;3703;48.016;7.802;2022-11-28T14:10:20;16.90;;;8.03;;
7324;SDS011;3703;48.016;7.802;2022-11-28T14:16:53;13.53;;;6.60;;
7324;SDS011;3703;48.016;7.802;2022-11-28T14:19:57;11.10;;;6.30;;
7324;SDS011;3703;48.016;7.802;2022-11-28T14:23:04;10.33;;;5.90;;
7324;SDS011;3703;48.016;7.802;2022-11-28T14:26:10;8.40;;;5.37;;
7324;SDS011;3703;48.016;7.802;2022-11-28T14:29:07;9.83;;;6.73;;
7324;SDS011;3703;48.016;7.802;2022-11-28T14:32:06;6.40;;;4.33;;
7324;SDS011;3703;48.016;7.802;2022-11-28T14:35:13;6.03;;;4.17;;
7324;SDS011;3703;48.016;7.802;2022-11-28T14:38:42;8.50;;;5.53;;
7324;SDS011;3703;48.016;7.802;2022-11-28T14:41:48;17.03;;;9.27;;
7324;SDS011;3703;48.016;7.802;2022-11-28T14:45:40;7.77;;;5.23;;
7324;SDS011;3703;48.016;7.802;2022-11-28T14:48:30;17.53;;;9.67;;
7324;SDS011;3703;48.016;7.802;2022-11-28T14:51:18;12.80;;;7.07;;
7324;SDS011;3703;48.016;7.802;2022-11-28T14:54:11;9.87;;;7.27;;
7324;SDS011;3703;48.016;7.802;2022-11-28T14:57:09;12.77;;;6.70;;
7324;SDS011;3703;48.016;7.802;2022-11-28T15:00:04;13.63;;;8.57;;
7324;SDS011;3703;48.016;7.802;2022-11-28T15:03:07;14.50;;;9.80;;
7324;SDS011;3703;48.016;7.802;2022-11-28T15:06:09;16.23;;;10.10;;
7324;SDS011;3703;48.016;7.802;2022-11-28T15:09:04;14.83;;;9.43;;
7324;SDS011;3703;48.016;7.802;2022-11-28T15:12:05;15.07;;;10.30;;
7324;SDS011;3703;48.016;7.802;2022-11-28T15:15:05;15.40;;;8.30;;
7324;SDS011;3703;48.016;7.802;2022-11-28T15:17:58;13.63;;;9.07;;
7324;SDS011;3703;48.016;7.802;2022-11-28T15:20:48;14.57;;;9.20;;
7324;SDS011;3703;48.016;7.802;2022-11-28T15:23:43;12.77;;;8.83;;
7324;SDS011;3703;48.016;7.802;2022-11-28T15:26:31;14.47;;;9.03;;
7324;SDS011;3703;48.016;7.802;2022-11-28T15:29:19;12.63;;;8.73;;
7324;SDS011;3703;48.016;7.802;2022-11-28T15:32:11;13.27;;;7.87;;
7324;SDS011;3703;48.016;7.802;2022-11-28T15:35:02;12.17;;;7.90;;
7324;SDS011;3703;48.016;7.802;2022-11-28T15:37:52;11.03;;;6.33;;
7324;SDS011;3703;48.016;7.802;2022-11-28T15:40:46;11.27;;;6.63;;
7324;SDS011;3703;48.016;7.802;2022-11-28T15:43:36;6.70;;;5.53;;
7324;SDS011;3703;48.016;7.802;2022-11-28T15:46:28;8.53;;;4.60;;
7324;SDS011;3703;48.016;7.802;2022-11-28T15:49:24;4.60;;;3.73;;
7324;SDS011;3703;48.016;7.802;2022-11-28T15:52:15;7.77;;;3.70;;
7324;SDS011;3703;48.016;7.802;2022-11-28T15:55:12;5.20;;;3.80;;
7324;SDS011;3703;48.016;7.802;2022-11-28T15:58:08;6.13;;;3.60;;
7324;SDS011;3703;48.016;7.802;2022-11-28T16:00:58;5.40;;;3.40;;
7324;SDS011;3703;48.016;7.802;2022-11-28T16:03:52;4.27;;;2.60;;
7324;SDS011;3703;48.016;7.802;2022-11-28T16:06:47;2.40;;;2.20;;
7324;SDS011;3703;48.016;7.802;2022-11-28T16:09:36;3.73;;;2.03;;
7324;SDS011;3703;48.016;7.802;2022-11-28T16:12:24;2.63;;;2.20;;
7324;SDS011;3703;48.016;7.802;2022-11-28T16:15:15;2.03;;;1.73;;
7324;SDS011;3703;48.016;7.802;2022-11-28T16:18:04;2.90;;;2.03;;
7324;SDS011;3703;48.016;7.802;2022-11-28T16:20:52;3.67;;;2.23;;
7324;SDS011;3703;48.016;7.802;2022-11-28T16:23:42;2.20;;;1.97;;
7324;SDS011;3703;48.016;7.802;2022-11-28T16:26:30;2.97;;;2.47;;
7324;SDS011;3703;48.016;7.802;2022-11-28T16:29:21;3.60;;;1.90;;
7324;SDS011;3703;48.016;7.802;2022-11-28T16:32:18;3.87;;;2.30;;
7324;SDS011;3703;48.016;7.802;2022-11-28T16:35:10;4.90;;;2.97;;
7324;SDS011;3703;48.016;7.802;2022-11-28T16:38:05;4.47;;;2.53;;
7324;SDS011;3703;48.016;7.802;2022-11-28T16:41:02;5.63;;;3.90;;
7324;SDS011;3703;48.016;7.802;2022-11-28T16:43:51;4.33;;;2.90;;
7324;SDS011;3703;48.016;7.802;2022-11-28T16:46:47;5.40;;;3.13;;
7324;SDS011;3703;48.016;7.802;2022-11-28T16:49:37;9.47;;;4.60;;
7324;SDS011;3703;48.016;7.802;2022-11-28T16:52:37;5.93;;;3.90;;
7324;SDS011;3703;48.016;7.802;2022-11-28T16:55:37;4.87;;;3.30;;
7324;SDS011;3703;48.016;7.802;2022-11-28T16:58:28;5.03;;;4.03;;
7324;SDS011;3703;48.016;7.802;2022-11-28T17:01:15;4.73;;;3.53;;
7324;SDS011;3703;48.016;7.802;2022-11-28T17:04:03;6.20;;;2.97;;
7324;SDS011;3703;48.016;7.802;2022-11-28T17:06:52;4.83;;;3.30;;
7324;SDS011;3703;48.016;7.802;2022-11-28T17:09:42;3.40;;;2.40;;
7324;SDS011;3703;48.016;7.802;2022-11-28T17:12:31;5.07;;;2.93;;
7324;SDS011;3703;48.016;7.802;2022-11-28T17:15:22;10.70;;;7.63;;
7324;SDS011;3703;48.016;7.802;2022-11-28T17:18:10;4.87;;;3.10;;
7324;SDS011;3703;48.016;7.802;2022-11-28T17:20:57;12.93;;;6.53;;
7324;SDS011;3703;48.016;7.802;2022-11-28T17:23:45;12.97;;;6.80;;
7324;SDS011;3703;48.016;7.802;2022-11-28T17:26:33;5.67;;;2.97;;
7324;SDS011;3703;48.016;7.802;2022-11-28T17:29:20;3.13;;;2.83;;
7324;SDS011;3703;48.016;7.802;2022-11-28T17:32:11;3.23;;;2.20;;
7324;SDS011;3703;48.016;7.802;2022-11-28T17:35:00;2.67;;;2.20;;
7324;SDS011;3703;48.016;7.802;2022-11-28T17:37:48;3.27;;;2.67;;
7324;SDS011;3703;48.016;7.802;2022-11-28T17:40:36;3.10;;;2.60;;
7324;SDS011;3703;48.016;7.802;2022-11-28T17:43:26;2.47;;;2.20;;
7324;SDS011;3703;48.016;7.802;2022-11-28T17:46:14;3.50;;;2.30;;
7324;SDS011;3703;48.016;7.802;2022-11-28T17:49:03;3.00;;;2.37;;
7324;SDS011;3703;48.016;7.802;2022-11-28T17:51:51;2.37;;;2.00;;
7324;SDS011;3703;48.016;7.802;2022-11-28T17:54:40;2.10;;;1.90;;
7324;SDS011;3703;48.016;7.802;2022-11-28T17:57:28;2.33;;;1.87;;
7324;SDS011;3703;48.016;7.802;2022-11-28T18:00:16;2.43;;;2.03;;
7324;SDS011;3703;48.016;7.802;2022-11-28T18:03:04;2.63;;;2.10;;
7324;SDS011;3703;48.016;7.802;2022-11-28T18:05:53;1.93;;;1.53;;
7324;SDS011;3703;48.016;7.802;2022-11-28T18:08:41;16.43;;;8.07;;